Time,TemperatureF,DewpointF,PressureIn,WindDirection,WindDirectionDegrees,WindSpeedMPH,WindSpeedGustMPH,Humidity,HourlyPrecipIn,Conditions,Clouds,dailyrainin,SoftwareType,DateUTC
2013-02-12 00:01:00,57.0,52.0,29.87,WSW,244,1.0,3.0,83,0.00,,,0.08,,2013-02-12 05:01:00,
2013-02-12 00:11:00,57.0,52.0,29.87,WSW,253,0.0,1.0,83,0.00,,,0.08,,2013-02-12 05:11:00,
2013-02-12 00:21:00,57.0,52.0,29.87,WSW,253,0.0,1.0,83,0.00,,,0.08,,2013-02-12 05:21:00,
2013-02-12 00:32:00,57.0,52.0,29.87,WSW,239,0.0,2.0,83,0.00,,,0.08,,2013-02-12 05:32:00,
2013-02-12 00:42:00,57.0,52.0,29.87,WSW,239,0.0,2.0,83,0.00,,,0.08,,2013-02-12 05:42:00,
2013-02-12 00:52:00,56.0,51.0,29.87,West,265,0.0,1.0,84,0.00,,,0.08,,2013-02-12 05:52:00,
2013-02-12 01:02:00,56.0,52.0,29.87,WSW,257,0.0,4.0,86,0.00,,,0.08,,2013-02-12 06:02:00,
2013-02-12 01:12:00,56.0,52.0,29.87,SSW,210,0.0,0.0,86,0.00,,,0.08,,2013-02-12 06:12:00,
2013-02-12 01:22:00,56.0,52.0,29.87,SSW,210,0.0,0.0,86,0.00,,,0.08,,2013-02-12 06:22:00,
2013-02-12 01:32:00,56.0,52.0,29.88,West,264,0.0,2.0,86,0.00,,,0.08,,2013-02-12 06:32:00,
2013-02-12 01:42:00,55.0,51.0,29.88,West,276,0.0,3.0,86,0.00,,,0.08,,2013-02-12 06:42:00,
2013-02-12 01:52:00,55.0,51.0,29.88,West,276,0.0,3.0,86,0.00,,,0.08,,2013-02-12 06:52:00,
2013-02-12 02:01:00,55.0,51.0,29.89,WSW,240,0.0,4.0,86,0.00,,,0.08,,2013-02-12 07:01:00,
2013-02-12 02:11:00,55.0,51.0,29.89,WSW,240,0.0,4.0,86,0.00,,,0.08,,2013-02-12 07:11:00,
2013-02-12 02:21:00,55.0,51.0,29.90,West,272,0.0,0.0,87,0.00,,,0.08,,2013-02-12 07:21:00,
2013-02-12 02:32:00,54.0,51.0,29.90,West,275,0.0,3.0,88,0.00,,,0.08,,2013-02-12 07:32:00,
2013-02-12 02:42:00,54.0,51.0,29.90,West,275,0.0,3.0,88,0.00,,,0.08,,2013-02-12 07:42:00,
2013-02-12 02:52:00,54.0,51.0,29.90,SW,235,0.0,5.0,88,0.00,,,0.07,,2013-02-12 07:52:00,
2013-02-12 03:01:00,54.0,51.0,29.89,WNW,283,0.0,6.0,89,0.00,,,0.07,,2013-02-12 08:01:00,
2013-02-12 03:11:00,54.0,51.0,29.89,WNW,283,0.0,6.0,89,0.00,,,0.07,,2013-02-12 08:11:00,
2013-02-12 03:21:00,54.0,51.0,29.89,NNW,338,0.0,4.0,89,0.00,,,0.07,,2013-02-12 08:21:00,
2013-02-12 03:32:00,53.0,50.0,29.90,NNW,338,0.0,2.0,89,0.00,,,0.07,,2013-02-12 08:32:00,
2013-02-12 03:42:00,53.0,50.0,29.90,NNW,338,0.0,2.0,89,0.00,,,0.07,,2013-02-12 08:42:00,
2013-02-12 03:52:00,53.0,50.0,29.90,NNW,334,0.0,4.0,90,0.00,,,0.07,,2013-02-12 08:52:00,
2013-02-12 04:02:00,53.0,50.0,29.90,NW,314,1.0,4.0,90,0.00,,,0.07,,2013-02-12 09:02:00,
2013-02-12 04:11:00,53.0,50.0,29.90,NW,314,1.0,4.0,90,0.00,,,0.07,,2013-02-12 09:11:00,
2013-02-12 04:21:00,52.0,49.0,29.90,WSW,250,0.0,1.0,90,0.00,,,0.07,,2013-02-12 09:21:00,
2013-02-12 04:32:00,52.0,50.0,29.90,NW,311,0.0,0.0,92,0.00,,,0.07,,2013-02-12 09:32:00,
2013-02-12 04:42:00,51.0,49.0,29.90,NW,311,0.0,0.0,92,0.00,,,0.07,,2013-02-12 09:42:00,
2013-02-12 04:52:00,51.0,49.0,29.90,NW,311,0.0,0.0,92,0.00,,,0.07,,2013-02-12 09:52:00,
2013-02-12 05:01:00,51.0,49.0,29.90,WSW,249,0.0,3.0,93,0.00,,,0.07,,2013-02-12 10:01:00,
2013-02-12 05:11:00,50.0,48.0,29.90,NW,304,0.0,1.0,93,0.00,,,0.07,,2013-02-12 10:11:00,
2013-02-12 05:21:00,50.0,48.0,29.90,NW,304,0.0,1.0,93,0.00,,,0.07,,2013-02-12 10:21:00,
2013-02-12 05:32:00,50.0,48.0,29.91,NW,304,0.0,0.0,94,0.00,,,0.07,,2013-02-12 10:32:00,
2013-02-12 05:43:00,50.0,48.0,29.91,NW,304,0.0,0.0,94,0.00,,,0.07,,2013-02-12 10:43:00,
2013-02-12 05:52:00,50.0,49.0,29.90,NW,309,0.0,4.0,95,0.00,,,0.07,,2013-02-12 10:52:00,
2013-02-12 06:01:00,50.0,48.0,29.91,NW,309,0.0,0.0,94,0.00,,,0.07,,2013-02-12 11:01:00,
2013-02-12 06:11:00,50.0,48.0,29.91,NW,309,0.0,0.0,94,0.00,,,0.07,,2013-02-12 11:11:00,
2013-02-12 06:22:00,50.0,48.0,29.91,North,360,0.0,1.0,92,0.00,,,0.07,,2013-02-12 11:22:00,
2013-02-12 06:32:00,50.0,47.0,29.92,WNW,295,1.0,3.0,91,0.00,,,0.07,,2013-02-12 11:32:00,
2013-02-12 06:42:00,50.0,47.0,29.92,WNW,295,1.0,3.0,91,0.00,,,0.07,,2013-02-12 11:42:00,
2013-02-12 06:52:00,49.0,46.0,29.92,WNW,300,0.0,1.0,90,0.00,,,0.07,,2013-02-12 11:52:00,
2013-02-12 07:01:00,49.0,46.0,29.92,WNW,297,0.0,3.0,89,0.00,,,0.07,,2013-02-12 12:01:00,
2013-02-12 07:11:00,48.0,42.0,29.94,NNW,338,0.0,5.0,81,0.00,,,0.07,,2013-02-12 12:11:00,
2013-02-12 07:21:00,48.0,42.0,29.94,NNW,338,0.0,5.0,81,0.00,,,0.07,,2013-02-12 12:21:00,
2013-02-12 07:32:00,48.0,41.0,29.94,NW,311,0.0,3.0,77,0.00,,,0.07,,2013-02-12 12:32:00,
2013-02-12 07:42:00,48.0,41.0,29.94,NW,311,0.0,3.0,77,0.00,,,0.07,,2013-02-12 12:42:00,
2013-02-12 07:53:00,48.0,39.0,29.94,NW,312,0.0,3.0,70,0.00,,,0.06,,2013-02-12 12:53:00,
2013-02-12 08:01:00,47.0,35.0,29.95,NNW,334,1.0,6.0,64,0.00,,,0.06,,2013-02-12 13:01:00,
2013-02-12 08:11:00,47.0,34.0,29.96,NW,316,0.0,4.0,61,0.00,,,0.06,,2013-02-12 13:11:00,
2013-02-12 08:22:00,47.0,34.0,29.96,NW,316,0.0,4.0,61,0.00,,,0.06,,2013-02-12 13:22:00,
2013-02-12 08:32:00,47.0,33.0,29.96,WNW,283,1.0,5.0,59,0.00,,,0.06,,2013-02-12 13:32:00,
2013-02-12 08:42:00,47.0,33.0,29.96,WNW,283,1.0,5.0,59,0.00,,,0.06,,2013-02-12 13:42:00,
2013-02-12 08:52:00,48.0,33.0,29.97,North,354,0.0,6.0,55,0.00,,,0.02,,2013-02-12 13:52:00,
2013-02-12 09:01:00,48.0,33.0,29.97,North,360,0.0,1.0,55,0.00,,,0.02,,2013-02-12 14:01:00,
2013-02-12 09:12:00,48.0,33.0,29.97,North,360,0.0,1.0,55,0.00,,,0.02,,2013-02-12 14:12:00,
2013-02-12 09:22:00,49.0,32.0,29.96,WNW,299,0.0,5.0,52,0.00,,,0.02,,2013-02-12 14:22:00,
2013-02-12 09:32:00,50.0,31.0,29.97,North,355,1.0,7.0,47,0.00,,,0.02,,2013-02-12 14:32:00,
2013-02-12 09:42:00,50.0,31.0,29.97,North,355,1.0,7.0,47,0.00,,,0.02,,2013-02-12 14:42:00,
2013-02-12 09:52:00,52.0,31.0,29.99,NW,316,0.0,6.0,44,0.00,,,0.00,,2013-02-12 14:52:00,
2013-02-12 10:02:00,53.0,32.0,29.99,NW,326,0.0,9.0,44,0.00,,,0.00,,2013-02-12 15:02:00,
2013-02-12 10:11:00,54.0,31.0,30.00,NW,306,0.0,10.0,41,0.00,,,0.00,,2013-02-12 15:11:00,
2013-02-12 10:21:00,54.0,31.0,30.00,NW,306,0.0,10.0,41,0.00,,,0.00,,2013-02-12 15:21:00,
2013-02-12 10:32:00,55.0,30.0,30.00,WNW,291,4.0,9.0,38,0.00,,,0.00,,2013-02-12 15:32:00,
2013-02-12 10:42:00,55.0,30.0,30.00,WNW,291,4.0,9.0,38,0.00,,,0.00,,2013-02-12 15:42:00,
2013-02-12 10:52:00,55.0,27.0,30.01,NW,320,1.0,9.0,34,0.00,,,0.00,,2013-02-12 15:52:00,
2013-02-12 11:01:00,56.0,27.0,30.00,NW,306,2.0,8.0,32,0.00,,,0.00,,2013-02-12 16:01:00,
2013-02-12 11:11:00,56.0,27.0,30.00,NW,306,2.0,8.0,32,0.00,,,0.00,,2013-02-12 16:11:00,
2013-02-12 11:22:00,55.0,29.0,30.00,NW,307,0.0,6.0,37,0.00,,,0.00,,2013-02-12 16:22:00,
2013-02-12 11:32:00,56.0,27.0,30.00,NW,308,2.0,6.0,33,0.00,,,0.00,,2013-02-12 16:32:00,
2013-02-12 11:42:00,56.0,27.0,30.00,NW,308,2.0,6.0,33,0.00,,,0.00,,2013-02-12 16:42:00,
2013-02-12 11:52:00,57.0,27.0,29.99,NW,308,0.0,12.0,32,0.00,,,0.00,,2013-02-12 16:52:00,
2013-02-12 12:01:00,58.0,28.0,29.98,WSW,255,1.0,9.0,31,0.00,,,0.00,,2013-02-12 17:01:00,
2013-02-12 12:12:00,58.0,28.0,29.98,WSW,255,1.0,9.0,31,0.00,,,0.00,,2013-02-12 17:12:00,
2013-02-12 12:21:00,58.0,28.0,29.98,NNW,348,0.0,6.0,31,0.00,,,0.00,,2013-02-12 17:21:00,
2013-02-12 12:32:00,59.0,29.0,29.97,NNE,24,0.0,4.0,32,0.00,,,0.00,,2013-02-12 17:32:00,
2013-02-12 12:42:00,59.0,29.0,29.97,NNE,24,0.0,4.0,32,0.00,,,0.00,,2013-02-12 17:42:00,
2013-02-12 12:52:00,59.0,25.0,29.96,NW,307,0.0,6.0,27,0.00,,,0.00,,2013-02-12 17:52:00,
2013-02-12 13:01:00,60.0,28.0,29.94,NNW,340,0.0,1.0,29,0.00,,,0.00,,2013-02-12 18:01:00,
2013-02-12 13:11:00,61.0,27.0,29.94,WSW,244,0.0,8.0,27,0.00,,,0.00,,2013-02-12 18:11:00,
2013-02-12 13:23:00,61.0,27.0,29.94,WSW,244,0.0,8.0,27,0.00,,,0.00,,2013-02-12 18:23:00,
2013-02-12 13:32:00,61.0,27.0,29.94,NW,305,2.0,5.0,27,0.00,,,0.00,,2013-02-12 18:32:00,
2013-02-12 13:41:00,61.0,27.0,29.94,NW,305,2.0,5.0,27,0.00,,,0.00,,2013-02-12 18:41:00,
2013-02-12 13:52:00,61.0,25.0,29.93,NNE,14,0.0,6.0,25,0.00,,,0.00,,2013-02-12 18:52:00,
2013-02-12 14:02:00,62.0,26.0,29.91,North,10,0.0,1.0,25,0.00,,,0.00,,2013-02-12 19:02:00,
2013-02-12 14:11:00,62.0,26.0,29.91,North,10,0.0,1.0,25,0.00,,,0.00,,2013-02-12 19:11:00,
2013-02-12 14:21:00,61.0,26.0,29.90,NNW,330,0.0,1.0,26,0.00,,,0.00,,2013-02-12 19:21:00,
2013-02-12 14:31:00,62.0,27.0,29.90,West,260,0.0,5.0,26,0.00,,,0.00,,2013-02-12 19:31:00,
2013-02-12 14:42:00,61.0,27.0,29.90,NE,48,0.0,1.0,27,0.00,,,0.00,,2013-02-12 19:42:00,
2013-02-12 14:52:00,61.0,27.0,29.90,NE,48,0.0,1.0,27,0.00,,,0.00,,2013-02-12 19:52:00,
2013-02-12 15:01:00,61.0,28.0,29.90,NW,318,0.0,4.0,28,0.00,,,0.00,,2013-02-12 20:01:00,
2013-02-12 15:11:00,61.0,28.0,29.90,NW,318,0.0,4.0,28,0.00,,,0.00,,2013-02-12 20:11:00,
2013-02-12 15:21:00,61.0,27.0,29.90,NW,324,0.0,0.0,27,0.00,,,0.00,,2013-02-12 20:21:00,
2013-02-12 15:32:00,61.0,27.0,29.91,NW,321,0.0,1.0,27,0.00,,,0.00,,2013-02-12 20:32:00,
2013-02-12 15:41:00,61.0,27.0,29.91,NW,321,0.0,1.0,27,0.00,,,0.00,,2013-02-12 20:41:00,
2013-02-12 15:52:00,61.0,28.0,29.91,NW,322,0.0,2.0,28,0.00,,,0.00,,2013-02-12 20:52:00,
2013-02-12 16:01:00,61.0,27.0,29.91,NW,320,0.0,1.0,27,0.00,,,0.00,,2013-02-12 21:01:00,
2013-02-12 16:11:00,61.0,27.0,29.91,NW,320,0.0,1.0,27,0.00,,,0.00,,2013-02-12 21:11:00,
2013-02-12 16:21:00,60.0,27.0,29.90,West,278,0.0,0.0,28,0.00,,,0.00,,2013-02-12 21:21:00,
2013-02-12 16:31:00,60.0,27.0,29.90,NW,305,0.0,2.0,28,0.00,,,0.00,,2013-02-12 21:31:00,
2013-02-12 16:42:00,60.0,27.0,29.90,WSW,256,0.0,0.0,28,0.00,,,0.00,,2013-02-12 21:42:00,
2013-02-12 16:52:00,60.0,27.0,29.90,WSW,256,0.0,0.0,28,0.00,,,0.00,,2013-02-12 21:52:00,
2013-02-12 17:01:00,59.0,29.0,29.90,WSW,256,0.0,1.0,32,0.00,,,0.00,,2013-02-12 22:01:00,
2013-02-12 17:12:00,59.0,29.0,29.90,WSW,256,0.0,1.0,32,0.00,,,0.00,,2013-02-12 22:12:00,
2013-02-12 17:21:00,58.0,28.0,29.90,WNW,296,0.0,0.0,31,0.00,,,0.00,,2013-02-12 22:21:00,
2013-02-12 17:32:00,58.0,30.0,29.91,WNW,296,0.0,0.0,34,0.00,,,0.00,,2013-02-12 22:32:00,
2013-02-12 17:42:00,58.0,30.0,29.91,WNW,296,0.0,0.0,34,0.00,,,0.00,,2013-02-12 22:42:00,
2013-02-12 17:52:00,57.0,32.0,29.90,WNW,296,0.0,0.0,38,0.00,,,0.00,,2013-02-12 22:52:00,
2013-02-12 18:01:00,56.0,29.0,29.91,WNW,297,0.0,1.0,35,0.00,,,0.00,,2013-02-12 23:01:00,
2013-02-12 18:11:00,56.0,31.0,29.90,WNW,297,0.0,0.0,38,0.00,,,0.00,,2013-02-12 23:11:00,
2013-02-12 18:21:00,56.0,31.0,29.90,WNW,297,0.0,0.0,38,0.00,,,0.00,,2013-02-12 23:21:00,
2013-02-12 18:32:00,55.0,31.0,29.91,WNW,297,0.0,1.0,39,0.00,,,0.00,,2013-02-12 23:32:00,
2013-02-12 18:42:00,55.0,31.0,29.91,WNW,297,0.0,1.0,39,0.00,,,0.00,,2013-02-12 23:42:00,
2013-02-12 18:52:00,54.0,31.0,29.91,WNW,297,0.0,0.0,42,0.00,,,0.00,,2013-02-12 23:52:00,
2013-02-12 19:02:00,54.0,33.0,29.90,WNW,297,0.0,0.0,45,0.00,,,0.00,,2013-02-13 00:02:00,
2013-02-12 19:11:00,54.0,33.0,29.90,WNW,297,0.0,0.0,45,0.00,,,0.00,,2013-02-13 00:11:00,
2013-02-12 19:21:00,53.0,35.0,29.90,WNW,297,0.0,0.0,50,0.00,,,0.00,,2013-02-13 00:21:00,
2013-02-12 19:32:00,52.0,34.0,29.90,WNW,297,0.0,0.0,51,0.00,,,0.00,,2013-02-13 00:32:00,
2013-02-12 19:42:00,52.0,34.0,29.90,WNW,297,0.0,0.0,51,0.00,,,0.00,,2013-02-13 00:42:00,
2013-02-12 19:52:00,52.0,35.0,29.89,WNW,297,0.0,0.0,52,0.00,,,0.00,,2013-02-13 00:52:00,
2013-02-12 20:01:00,51.0,34.0,29.89,WNW,297,0.0,0.0,53,0.00,,,0.00,,2013-02-13 01:01:00,
2013-02-12 20:11:00,51.0,34.0,29.89,WNW,297,0.0,0.0,53,0.00,,,0.00,,2013-02-13 01:11:00,
2013-02-12 20:21:00,51.0,35.0,29.85,WNW,297,0.0,0.0,55,0.00,,,0.00,,2013-02-13 01:21:00,
2013-02-12 20:31:00,50.0,35.0,29.83,WNW,297,0.0,0.0,56,0.00,,,0.00,,2013-02-13 01:31:00,
2013-02-12 20:42:00,50.0,36.0,29.84,WNW,297,0.0,0.0,58,0.00,,,0.00,,2013-02-13 01:42:00,
2013-02-12 20:52:00,50.0,36.0,29.84,WNW,297,0.0,0.0,58,0.00,,,0.00,,2013-02-13 01:52:00,
2013-02-12 21:01:00,50.0,36.0,29.87,WNW,297,0.0,0.0,58,0.00,,,0.00,,2013-02-13 02:01:00,
2013-02-12 21:11:00,50.0,36.0,29.87,WNW,297,0.0,0.0,58,0.00,,,0.00,,2013-02-13 02:11:00,
2013-02-12 21:22:00,50.0,36.0,29.89,WNW,297,0.0,0.0,59,0.00,,,0.00,,2013-02-13 02:22:00,
2013-02-12 21:32:00,50.0,36.0,29.90,WNW,297,0.0,0.0,58,0.00,,,0.00,,2013-02-13 02:32:00,
2013-02-12 21:42:00,50.0,36.0,29.90,WNW,297,0.0,0.0,58,0.00,,,0.00,,2013-02-13 02:42:00,
2013-02-12 21:52:00,50.0,38.0,29.90,WNW,297,0.0,0.0,63,0.00,,,0.00,,2013-02-13 02:52:00,
2013-02-12 22:01:00,50.0,38.0,29.90,WNW,297,0.0,0.0,63,0.00,,,0.00,,2013-02-13 03:01:00,
2013-02-12 22:11:00,49.0,37.0,29.91,WNW,297,0.0,0.0,64,0.00,,,0.00,,2013-02-13 03:11:00,
2013-02-12 22:21:00,49.0,37.0,29.91,WNW,297,0.0,0.0,64,0.00,,,0.00,,2013-02-13 03:21:00,
2013-02-12 22:32:00,49.0,37.0,29.92,WNW,297,0.0,0.0,64,0.00,,,0.00,,2013-02-13 03:32:00,
2013-02-12 22:42:00,49.0,37.0,29.92,WNW,297,0.0,0.0,64,0.00,,,0.00,,2013-02-13 03:42:00,
2013-02-12 22:52:00,49.0,39.0,29.91,WNW,297,0.0,0.0,67,0.00,,,0.00,,2013-02-13 03:52:00,
2013-02-12 23:01:00,49.0,38.0,29.90,WNW,297,0.0,0.0,66,0.00,,,0.00,,2013-02-13 04:01:00,
2013-02-12 23:11:00,49.0,38.0,29.90,WNW,297,0.0,0.0,66,0.00,,,0.00,,2013-02-13 04:11:00,
2013-02-12 23:21:00,49.0,37.0,29.88,WNW,297,0.0,0.0,64,0.00,,,0.00,,2013-02-13 04:21:00,
2013-02-12 23:32:00,49.0,38.0,29.88,WNW,297,0.0,0.0,65,0.00,,,0.00,,2013-02-13 04:32:00,
2013-02-12 23:42:00,49.0,38.0,29.88,WNW,297,0.0,0.0,65,0.00,,,0.00,,2013-02-13 04:42:00,
2013-02-12 23:52:00,49.0,38.0,29.87,South,186,0.0,0.0,66,0.00,,,0.00,,2013-02-13 04:52:00,